Time;durP1;ratioP1;P1;durP2;ratioP2;P2;SDS_P1;SDS_P2;PMS_P1;PMS_P2;Temp;Humidity;BMP_temperature;BMP_pressure;BME280_temperature;BME280_humidity;BME280_pressure;Samples;Min_cycle;Max_cycle;Signal;HPM_P1;HPM_P2
2022/06/25 00:00:10;;;;;;;2.88;0.80;;;;;;;;;;514559;28;1185;-84
2022/06/25 00:00:25;;;;;;;1.55;0.80;;;;;;;;;;515181;28;1279;-82
2022/06/25 00:00:41;;;;;;;1.63;0.73;;;;;;;;;;516665;28;952;-83
2022/06/25 00:00:56;;;;;;;2.10;0.80;;;;;;;;;;519153;28;1346;-83
2022/06/25 00:01:13;;;;;;;2.75;1.00;;;;;;;;;;518548;28;959;-83
2022/06/25 00:01:28;;;;;;;2.20;0.90;;;;;;;;;;518008;28;1296;-83
2022/06/25 00:01:43;;;;;;;2.63;0.80;;;;;;;;;;515889;28;999;-83
2022/06/25 00:01:59;;;;;;;2.30;0.90;;;;;;;;;;515266;28;1270;-83
2022/06/25 00:02:14;;;;;;;1.50;0.90;;;;;;;;;;514569;28;1602;-83
2022/06/25 00:02:29;;;;;;;1.80;0.90;;;;;;;;;;517161;28;1216;-83
2022/06/25 00:02:45;;;;;;;2.15;0.90;;;;;;;;;;514292;28;1523;-82
2022/06/25 00:03:00;;;;;;;2.23;0.83;;;;;;;;;;515215;28;1643;-82
2022/06/25 00:03:15;;;;;;;2.13;0.75;;;;;;;;;;516279;28;782;-82
2022/06/25 00:03:31;;;;;;;1.40;0.80;;;;;;;;;;518276;28;1445;-82
2022/06/25 00:03:46;;;;;;;1.00;0.80;;;;;;;;;;517767;28;980;-82
2022/06/25 00:04:02;;;;;;;1.80;0.80;;;;;;;;;;516436;28;905;-82
2022/06/25 00:05:29;;;;;;;1.73;0.80;;;;;;;;;;520041;28;675;-82
2022/06/25 00:05:44;;;;;;;2.15;0.80;;;;;;;;;;517105;28;1748;-82
2022/06/25 00:05:59;;;;;;;2.83;0.80;;;;;;;;;;516673;28;815;-82
2022/06/25 00:06:15;;;;;;;3.30;0.82;;;;;;;;;;515501;28;1337;-82
2022/06/25 00:06:31;;;;;;;3.17;0.95;;;;;;;;;;514571;28;1647;-82
2022/06/25 00:06:47;;;;;;;2.00;0.90;;;;;;;;;;514351;28;1548;-82
2022/06/25 00:07:03;;;;;;;1.65;0.80;;;;;;;;;;514447;28;1286;-82
2022/06/25 00:07:18;;;;;;;1.65;0.80;;;;;;;;;;515418;28;850;-82
2022/06/25 00:07:33;;;;;;;2.60;0.90;;;;;;;;;;515592;28;1737;-82
2022/06/25 00:07:49;;;;;;;2.35;0.90;;;;;;;;;;516706;28;849;-82
2022/06/25 00:08:04;;;;;;;1.23;0.80;;;;;;;;;;519106;28;852;-82
2022/06/25 00:08:20;;;;;;;1.27;0.70;;;;;;;;;;519524;28;1545;-82
2022/06/25 00:08:36;;;;;;;1.70;0.80;;;;;;;;;;516788;28;806;-82
2022/06/25 00:08:52;;;;;;;1.85;0.90;;;;;;;;;;518951;28;1474;-82
2022/06/25 00:09:07;;;;;;;1.93;0.80;;;;;;;;;;518484;28;1249;-82
2022/06/25 00:09:23;;;;;;;2.33;0.90;;;;;;;;;;518424;28;1280;-82
2022/06/25 00:09:38;;;;;;;2.40;0.90;;;;;;;;;;520139;28;798;-82
2022/06/25 00:09:54;;;;;;;1.48;0.80;;;;;;;;;;519351;28;1688;-82
2022/06/25 00:10:09;;;;;;;1.70;0.80;;;;;;;;;;518494;28;857;-82
2022/06/25 00:10:25;;;;;;;1.75;0.85;;;;;;;;;;516126;28;1910;-82
2022/06/25 00:10:40;;;;;;;1.47;0.80;;;;;;;;;;515808;28;1444;-82
2022/06/25 00:10:56;;;;;;;1.45;0.80;;;;;;;;;;514916;28;1301;-82
2022/06/25 00:12:32;;;;;;;1.80;0.80;;;;;;;;;;518322;28;739;-83
2022/06/25 00:12:48;;;;;;;1.20;0.70;;;;;;;;;;514799;28;1510;-82
2022/06/25 00:13:03;;;;;;;1.17;0.80;;;;;;;;;;517142;28;1181;-82
2022/06/25 00:13:19;;;;;;;1.50;0.77;;;;;;;;;;519135;28;1003;-83
2022/06/25 00:13:35;;;;;;;1.73;0.82;;;;;;;;;;518228;28;1264;-83
2022/06/25 00:13:50;;;;;;;1.80;0.90;;;;;;;;;;518263;28;888;-83
2022/06/25 00:14:10;;;;;;;1.67;0.80;;;;;;;;;;515989;28;1448;-82
2022/06/25 00:14:26;;;;;;;1.90;0.90;;;;;;;;;;516034;28;1575;-82
2022/06/25 00:14:41;;;;;;;2.57;0.80;;;;;;;;;;514993;28;1134;-82
2022/06/25 00:14:59;;;;;;;2.15;0.80;;;;;;;;;;517062;28;905;-82
2022/06/25 00:15:15;;;;;;;1.77;0.83;;;;;;;;;;516072;28;970;-82
2022/06/25 00:15:30;;;;;;;2.13;0.90;;;;;;;;;;515785;28;1277;-82
2022/06/25 00:15:46;;;;;;;2.70;0.90;;;;;;;;;;516044;28;1447;-82
2022/06/25 00:16:01;;;;;;;1.95;0.90;;;;;;;;;;517436;28;931;-82
2022/06/25 00:16:17;;;;;;;2.08;0.90;;;;;;;;;;518290;28;861;-82
2022/06/25 00:16:33;;;;;;;2.83;1.03;;;;;;;;;;518986;28;861;-82
2022/06/25 00:16:49;;;;;;;3.33;1.00;;;;;;;;;;518153;28;1369;-82
2022/06/25 00:17:05;;;;;;;2.90;0.90;;;;;;;;;;518026;28;828;-82
2022/06/25 00:17:20;;;;;;;1.73;0.82;;;;;;;;;;516705;28;1303;-82
2022/06/25 00:17:36;;;;;;;2.03;0.80;;;;;;;;;;516191;28;1352;-82
2022/06/25 00:17:51;;;;;;;2.43;0.90;;;;;;;;;;514386;28;1295;-82
2022/06/25 00:18:07;;;;;;;2.80;1.00;;;;;;;;;;514410;28;1655;-83
2022/06/25 00:18:22;;;;;;;3.40;1.10;;;;;;;;;;514368;28;1243;-83
2022/06/25 00:18:37;;;;;;;3.40;1.10;;;;;;;;;;514490;28;927;-83
2022/06/25 00:18:53;;;;;;;2.73;1.00;;;;;;;;;;514444;28;1575;-83
2022/06/25 00:19:08;;;;;;;2.27;1.00;;;;;;;;;;514889;28;1270;-83
2022/06/25 00:19:24;;;;;;;2.55;0.90;;;;;;;;;;512543;28;1272;-83
2022/06/25 00:19:39;;;;;;;2.53;0.90;;;;;;;;;;514338;28;830;-83
2022/06/25 00:19:55;;;;;;;2.37;1.10;;;;;;;;;;512058;29;1237;-83
2022/06/25 00:20:11;;;;;;;2.85;1.00;;;;;;;;;;512408;29;1177;-83
2022/06/25 00:20:26;;;;;;;2.63;0.90;;;;;;;;;;510398;29;1213;-83
2022/06/25 00:20:43;;;;;;;1.80;1.00;;;;;;;;;;512468;29;1172;-83
2022/06/25 00:20:58;;;;;;;2.05;1.02;;;;;;;;;;512571;29;928;-83
2022/06/25 00:21:14;;;;;;;1.60;0.80;;;;;;;;;;512468;29;1108;-83
2022/06/25 00:21:31;;;;;;;1.17;0.80;;;;;;;;;;516135;28;932;-83
2022/06/25 00:21:46;;;;;;;1.50;0.90;;;;;;;;;;516940;28;884;-83
2022/06/25 00:22:02;;;;;;;1.50;0.90;;;;;;;;;;516913;28;1376;-83
2022/06/25 00:22:18;;;;;;;1.40;0.90;;;;;;;;;;518251;28;805;-83
2022/06/25 00:22:34;;;;;;;1.75;0.90;;;;;;;;;;515977;28;1563;-82
2022/06/25 00:22:49;;;;;;;1.93;0.90;;;;;;;;;;516211;28;1145;-82
2022/06/25 00:23:04;;;;;;;1.63;0.97;;;;;;;;;;514752;28;1537;-82
2022/06/25 00:23:20;;;;;;;1.80;0.90;;;;;;;;;;514312;28;1644;-82
2022/06/25 00:23:35;;;;;;;2.30;0.87;;;;;;;;;;514254;28;1555;-82
2022/06/25 00:23:50;;;;;;;2.30;1.00;;;;;;;;;;514417;28;1287;-82
2022/06/25 00:24:06;;;;;;;1.80;0.90;;;;;;;;;;514459;28;959;-82
2022/06/25 00:24:22;;;;;;;2.03;0.80;;;;;;;;;;514740;28;829;-82
2022/06/25 00:24:37;;;;;;;2.42;0.90;;;;;;;;;;515192;28;1626;-83
2022/06/25 00:24:53;;;;;;;1.80;0.90;;;;;;;;;;514532;28;1169;-83
2022/06/25 00:25:08;;;;;;;1.17;0.90;;;;;;;;;;516201;28;1168;-82
2022/06/25 00:25:24;;;;;;;1.00;0.90;;;;;;;;;;513753;28;1551;-82
2022/06/25 00:25:40;;;;;;;0.93;0.80;;;;;;;;;;510503;29;1156;-82
2022/06/25 00:25:55;;;;;;;1.42;0.88;;;;;;;;;;510322;29;1344;-82
2022/06/25 00:26:10;;;;;;;2.10;0.90;;;;;;;;;;512192;28;933;-82
2022/06/25 00:26:27;;;;;;;1.98;1.00;;;;;;;;;;514569;28;948;-82
2022/06/25 00:26:43;;;;;;;1.20;0.90;;;;;;;;;;514972;28;961;-82
2022/06/25 00:26:59;;;;;;;1.00;0.90;;;;;;;;;;517193;28;948;-82
2022/06/25 00:27:14;;;;;;;1.50;1.00;;;;;;;;;;519107;28;1156;-82
2022/06/25 00:27:31;;;;;;;1.50;1.00;;;;;;;;;;517343;28;1404;-82
2022/06/25 00:27:46;;;;;;;1.08;0.80;;;;;;;;;;517093;28;916;-82
2022/06/25 00:28:02;;;;;;;1.40;0.90;;;;;;;;;;518333;28;1227;-82
2022/06/25 00:28:17;;;;;;;1.50;0.98;;;;;;;;;;518509;28;962;-82
2022/06/25 00:28:33;;;;;;;1.38;0.80;;;;;;;;;;514545;28;1153;-82
2022/06/25 00:28:48;;;;;;;1.33;0.73;;;;;;;;;;513463;28;1161;-82
2022/06/25 00:29:04;;;;;;;1.25;0.77;;;;;;;;;;513659;28;876;-82
2022/06/25 00:29:19;;;;;;;1.10;0.80;;;;;;;;;;514330;28;1162;-83
2022/06/25 00:29:35;;;;;;;1.10;0.70;;;;;;;;;;512414;28;1605;-83
2022/06/25 00:29:50;;;;;;;1.70;0.80;;;;;;;;;;512895;28;1031;-83
2022/06/25 00:30:07;;;;;;;2.00;0.83;;;;;;;;;;514862;28;1015;-83
2022/06/25 00:30:23;;;;;;;1.85;0.90;;;;;;;;;;516124;28;1266;-83
2022/06/25 00:30:38;;;;;;;1.50;0.80;;;;;;;;;;517096;28;771;-83
2022/06/25 00:30:53;;;;;;;2.30;0.90;;;;;;;;;;518392;28;1625;-82
2022/06/25 00:31:09;;;;;;;2.42;0.93;;;;;;;;;;516747;28;1164;-83
2022/06/25 00:31:24;;;;;;;1.17;0.90;;;;;;;;;;518180;28;1215;-83
2022/06/25 00:31:40;;;;;;;1.30;0.87;;;;;;;;;;518208;28;908;-83
2022/06/25 00:31:55;;;;;;;1.67;0.90;;;;;;;;;;518349;28;1155;-83
2022/06/25 00:32:11;;;;;;;1.93;0.90;;;;;;;;;;519194;28;1157;-83
2022/06/25 00:32:26;;;;;;;2.90;1.00;;;;;;;;;;518356;28;1171;-82
2022/06/25 00:32:44;;;;;;;2.40;0.90;;;;;;;;;;516489;28;1215;-82
2022/06/25 00:32:59;;;;;;;1.30;0.80;;;;;;;;;;516153;28;1619;-82
2022/06/25 00:33:15;;;;;;;2.40;1.00;;;;;;;;;;515601;28;1523;-82
2022/06/25 00:33:30;;;;;;;2.80;0.93;;;;;;;;;;514360;28;959;-83
2022/06/25 00:33:45;;;;;;;1.27;0.80;;;;;;;;;;513845;28;1662;-83
2022/06/25 00:34:01;;;;;;;1.20;0.82;;;;;;;;;;513002;28;1031;-83
2022/06/25 00:34:16;;;;;;;1.60;0.90;;;;;;;;;;514908;28;979;-83
2022/06/25 00:34:31;;;;;;;1.93;0.90;;;;;;;;;;514834;28;1295;-83
2022/06/25 00:34:47;;;;;;;1.80;0.85;;;;;;;;;;516628;28;1066;-83
2022/06/25 00:35:04;;;;;;;2.23;0.90;;;;;;;;;;516322;28;1377;-83
2022/06/25 00:35:19;;;;;;;2.72;0.90;;;;;;;;;;516340;28;1387;-83
2022/06/25 00:35:35;;;;;;;3.13;0.90;;;;;;;;;;516399;28;1172;-83
2022/06/25 00:35:50;;;;;;;2.45;0.90;;;;;;;;;;516467;28;892;-83
2022/06/25 00:36:05;;;;;;;1.10;0.80;;;;;;;;;;516494;28;911;-83
2022/06/25 00:36:21;;;;;;;1.88;0.90;;;;;;;;;;516870;28;1077;-83
2022/06/25 00:36:36;;;;;;;2.57;1.00;;;;;;;;;;518453;28;1251;-83
2022/06/25 00:36:52;;;;;;;3.25;1.02;;;;;;;;;;518281;28;1196;-83
2022/06/25 00:37:08;;;;;;;3.23;1.00;;;;;;;;;;518170;28;1425;-83
2022/06/25 00:37:23;;;;;;;2.25;0.90;;;;;;;;;;518205;28;824;-82
2022/06/25 00:37:38;;;;;;;2.10;0.70;;;;;;;;;;518302;28;1351;-82
2022/06/25 00:37:54;;;;;;;1.98;0.88;;;;;;;;;;516230;28;1383;-83
2022/06/25 00:38:09;;;;;;;1.40;0.80;;;;;;;;;;516089;28;1129;-82
2022/06/25 00:38:25;;;;;;;1.45;0.80;;;;;;;;;;517417;28;1430;-82
2022/06/25 00:38:41;;;;;;;1.30;0.77;;;;;;;;;;514161;28;1336;-82
2022/06/25 00:38:57;;;;;;;1.40;0.70;;;;;;;;;;514184;28;1610;-82
2022/06/25 00:39:12;;;;;;;1.50;0.80;;;;;;;;;;513937;28;1436;-82
2022/06/25 00:39:29;;;;;;;0.93;0.73;;;;;;;;;;513725;28;1328;-82
2022/06/25 00:39:44;;;;;;;0.88;0.80;;;;;;;;;;515678;28;1337;-82
2022/06/25 00:40:00;;;;;;;1.23;0.90;;;;;;;;;;517799;28;1197;-83
2022/06/25 00:40:15;;;;;;;1.35;0.90;;;;;;;;;;515867;28;1702;-83
2022/06/25 00:40:30;;;;;;;1.70;0.90;;;;;;;;;;515933;28;872;-83
2022/06/25 00:40:46;;;;;;;2.10;0.90;;;;;;;;;;515811;28;1483;-83
2022/06/25 00:41:03;;;;;;;2.27;0.90;;;;;;;;;;513885;28;1184;-83
2022/06/25 00:41:19;;;;;;;2.28;0.90;;;;;;;;;;514029;28;971;-83
2022/06/25 00:41:34;;;;;;;2.30;0.90;;;;;;;;;;514781;28;793;-83
2022/06/25 00:41:50;;;;;;;2.03;0.97;;;;;;;;;;516092;28;1178;-82
2022/06/25 00:42:10;;;;;;;1.85;0.90;;;;;;;;;;514165;28;1206;-82
2022/06/25 00:42:26;;;;;;;1.75;0.90;;;;;;;;;;514186;28;944;-82
2022/06/25 00:42:45;;;;;;;1.20;0.80;;;;;;;;;;515383;28;1079;-82
2022/06/25 00:43:00;;;;;;;0.95;0.80;;;;;;;;;;517901;28;1097;-82
2022/06/25 00:43:16;;;;;;;1.60;0.93;;;;;;;;;;518174;28;801;-82
2022/06/25 00:43:31;;;;;;;3.37;0.97;;;;;;;;;;515992;28;1160;-82
2022/06/25 00:43:46;;;;;;;3.33;0.90;;;;;;;;;;516200;28;863;-82
2022/06/25 00:44:09;;;;;;;2.40;0.98;;;;;;;;;;517802;28;959;-82
2022/06/25 00:44:27;;;;;;;1.58;0.82;;;;;;;;;;516304;28;1547;-82
2022/06/25 00:44:43;;;;;;;1.48;0.90;;;;;;;;;;516165;28;1426;-82
2022/06/25 00:44:58;;;;;;;1.77;0.80;;;;;;;;;;516473;28;844;-82
2022/06/25 00:45:14;;;;;;;1.75;0.85;;;;;;;;;;516408;28;1231;-82
2022/06/25 00:45:29;;;;;;;1.27;1.00;;;;;;;;;;518097;28;904;-82
2022/06/25 00:45:44;;;;;;;1.50;0.97;;;;;;;;;;516558;28;1183;-82
2022/06/25 00:46:01;;;;;;;1.83;0.90;;;;;;;;;;514271;28;1182;-82
2022/06/25 00:46:17;;;;;;;2.53;0.82;;;;;;;;;;516348;28;1407;-82
2022/06/25 00:46:32;;;;;;;2.03;0.80;;;;;;;;;;516318;28;1160;-82
2022/06/25 00:46:48;;;;;;;1.15;0.80;;;;;;;;;;516322;28;896;-82
2022/06/25 00:47:07;;;;;;;1.70;0.90;;;;;;;;;;516786;28;1589;-82
2022/06/25 00:47:22;;;;;;;1.80;0.80;;;;;;;;;;516336;28;1348;-83
2022/06/25 00:47:38;;;;;;;2.60;0.90;;;;;;;;;;516333;28;1449;-83
2022/06/25 00:47:54;;;;;;;2.93;1.00;;;;;;;;;;514351;28;1364;-83
2022/06/25 00:48:09;;;;;;;2.45;0.90;;;;;;;;;;515228;28;1195;-83
2022/06/25 00:48:24;;;;;;;2.40;0.80;;;;;;;;;;515704;28;781;-83
2022/06/25 00:48:40;;;;;;;2.28;0.80;;;;;;;;;;514192;28;1540;-83
2022/06/25 00:48:56;;;;;;;2.00;0.80;;;;;;;;;;514195;28;1532;-83
2022/06/25 00:49:11;;;;;;;1.60;0.80;;;;;;;;;;514913;28;790;-83
2022/06/25 00:49:26;;;;;;;1.30;0.90;;;;;;;;;;516752;28;1188;-82
2022/06/25 00:49:42;;;;;;;1.00;0.90;;;;;;;;;;518465;28;1095;-82
2022/06/25 00:49:58;;;;;;;1.70;0.90;;;;;;;;;;518384;28;871;-82
2022/06/25 00:50:13;;;;;;;1.93;0.87;;;;;;;;;;518550;28;1011;-82
2022/06/25 00:50:28;;;;;;;1.20;0.90;;;;;;;;;;518443;28;1910;-82
2022/06/25 00:50:44;;;;;;;1.00;0.90;;;;;;;;;;518542;28;966;-82
2022/06/25 00:51:04;;;;;;;1.30;0.90;;;;;;;;;;518270;28;1368;-82
2022/06/25 00:51:22;;;;;;;1.30;0.80;;;;;;;;;;519306;28;1306;-82
2022/06/25 00:51:40;;;;;;;2.15;0.90;;;;;;;;;;518464;28;1430;-82
2022/06/25 00:51:57;;;;;;;1.88;0.80;;;;;;;;;;516307;28;1465;-82
2022/06/25 00:52:15;;;;;;;1.10;0.70;;;;;;;;;;516221;28;1244;-82
2022/06/25 00:52:34;;;;;;;1.33;0.80;;;;;;;;;;516239;28;1247;-82
2022/06/25 00:52:54;;;;;;;1.42;0.88;;;;;;;;;;516218;28;1102;-82
2022/06/25 00:53:11;;;;;;;1.73;1.00;;;;;;;;;;515648;28;1605;-82
2022/06/25 00:53:32;;;;;;;1.83;0.90;;;;;;;;;;515127;28;1357;-82
2022/06/25 00:53:48;;;;;;;1.48;0.82;;;;;;;;;;515171;28;853;-82
2022/06/25 00:54:05;;;;;;;1.63;0.90;;;;;;;;;;515792;28;967;-82
2022/06/25 00:54:24;;;;;;;1.50;0.80;;;;;;;;;;516136;28;1011;-82
2022/06/25 00:54:45;;;;;;;1.27;0.75;;;;;;;;;;516224;28;872;-82
2022/06/25 00:55:10;;;;;;;2.28;0.85;;;;;;;;;;516225;28;853;-82
2022/06/25 00:55:28;;;;;;;1.40;0.90;;;;;;;;;;517306;28;1589;-82
2022/06/25 00:55:47;;;;;;;2.25;0.85;;;;;;;;;;516159;28;1575;-84
2022/06/25 00:56:05;;;;;;;1.48;0.80;;;;;;;;;;516298;28;999;-83
2022/06/25 00:56:22;;;;;;;0.88;0.77;;;;;;;;;;516371;28;1406;-83
2022/06/25 00:56:47;;;;;;;1.02;0.80;;;;;;;;;;515476;28;1361;-83
2022/06/25 00:57:08;;;;;;;1.17;0.73;;;;;;;;;;514114;28;1375;-83
2022/06/25 00:57:25;;;;;;;1.60;0.80;;;;;;;;;;513755;28;1662;-82
2022/06/25 00:57:43;;;;;;;1.55;0.80;;;;;;;;;;516094;28;1362;-82
2022/06/25 00:58:00;;;;;;;0.98;0.80;;;;;;;;;;516225;28;1684;-82
2022/06/25 00:58:18;;;;;;;1.10;0.90;;;;;;;;;;518725;28;995;-83
2022/06/25 00:58:38;;;;;;;2.03;0.90;;;;;;;;;;520502;28;1051;-83
2022/06/25 00:58:58;;;;;;;2.50;0.90;;;;;;;;;;516655;28;1675;-83
2022/06/25 00:59:17;;;;;;;1.45;0.90;;;;;;;;;;516898;28;1073;-83
2022/06/25 00:59:41;;;;;;;2.17;1.00;;;;;;;;;;519097;28;1243;-83
2022/06/25 01:00:01;;;;;;;1.42;0.90;;;;;;;;;;517203;28;1385;-83
2022/06/25 01:00:17;;;;;;;1.23;1.00;;;;;;;;;;516189;28;1212;-83
2022/06/25 01:00:33;;;;;;;1.30;1.00;;;;;;;;;;516304;28;1769;-83
2022/06/25 01:00:48;;;;;;;1.10;0.80;;;;;;;;;;517420;28;1151;-83
2022/06/25 01:01:05;;;;;;;1.70;0.90;;;;;;;;;;516191;28;1571;-83
2022/06/25 01:01:20;;;;;;;2.00;0.90;;;;;;;;;;516106;28;1559;-82
2022/06/25 01:01:35;;;;;;;1.40;0.90;;;;;;;;;;514353;28;1174;-82
2022/06/25 01:01:51;;;;;;;1.50;1.00;;;;;;;;;;514480;28;899;-82
2022/06/25 01:02:07;;;;;;;1.80;1.00;;;;;;;;;;513681;28;1427;-82
2022/06/25 01:02:22;;;;;;;2.40;1.00;;;;;;;;;;512534;28;853;-83
2022/06/25 01:02:40;;;;;;;2.17;0.80;;;;;;;;;;512973;28;1674;-83
2022/06/25 01:02:55;;;;;;;1.30;0.80;;;;;;;;;;515201;28;868;-83
2022/06/25 01:03:10;;;;;;;1.27;0.90;;;;;;;;;;516454;28;1232;-83
2022/06/25 01:03:29;;;;;;;1.20;0.90;;;;;;;;;;514955;28;1205;-83
2022/06/25 01:03:44;;;;;;;2.08;0.90;;;;;;;;;;519630;28;1462;-83
2022/06/25 01:04:00;;;;;;;2.33;0.90;;;;;;;;;;520554;28;852;-83
2022/06/25 01:04:15;;;;;;;2.58;0.90;;;;;;;;;;518855;28;1617;-83
2022/06/25 01:04:31;;;;;;;2.47;0.90;;;;;;;;;;518456;28;848;-83
2022/06/25 01:04:47;;;;;;;1.30;0.90;;;;;;;;;;518373;28;1015;-83
2022/06/25 01:05:11;;;;;;;1.27;0.85;;;;;;;;;;518214;28;884;-83
2022/06/25 01:05:26;;;;;;;1.33;0.90;;;;;;;;;;520025;28;900;-82
2022/06/25 01:05:41;;;;;;;1.27;0.80;;;;;;;;;;519891;28;924;-82
2022/06/25 01:05:57;;;;;;;1.00;0.80;;;;;;;;;;517740;28;1503;-82
2022/06/25 01:06:13;;;;;;;1.13;0.83;;;;;;;;;;517965;28;1180;-82
2022/06/25 01:06:28;;;;;;;1.13;0.80;;;;;;;;;;516074;28;1244;-82
2022/06/25 01:06:44;;;;;;;1.90;0.83;;;;;;;;;;516133;28;920;-82
2022/06/25 01:07:00;;;;;;;2.95;0.90;;;;;;;;;;514076;28;1268;-82
2022/06/25 01:07:16;;;;;;;2.22;0.80;;;;;;;;;;514467;28;869;-82
2022/06/25 01:07:34;;;;;;;1.70;0.80;;;;;;;;;;514124;28;1434;-82
2022/06/25 01:07:50;;;;;;;1.85;0.90;;;;;;;;;;513167;28;1268;-82
2022/06/25 01:08:06;;;;;;;1.63;0.90;;;;;;;;;;514305;28;849;-82
2022/06/25 01:08:23;;;;;;;1.92;0.85;;;;;;;;;;515592;28;865;-82
2022/06/25 01:08:38;;;;;;;2.20;0.80;;;;;;;;;;516007;28;1765;-82
2022/06/25 01:08:53;;;;;;;2.40;0.90;;;;;;;;;;516737;28;872;-82
2022/06/25 01:09:09;;;;;;;1.70;0.90;;;;;;;;;;516826;28;889;-82
2022/06/25 01:09:25;;;;;;;2.15;0.95;;;;;;;;;;516407;28;995;-82
2022/06/25 01:09:40;;;;;;;2.20;0.95;;;;;;;;;;516548;28;936;-82
2022/06/25 01:09:56;;;;;;;1.17;0.80;;;;;;;;;;518801;28;887;-82
2022/06/25 01:10:13;;;;;;;1.87;0.80;;;;;;;;;;514266;28;1319;-82
2022/06/25 01:10:28;;;;;;;1.83;0.80;;;;;;;;;;512778;28;1906;-82
2022/06/25 01:10:44;;;;;;;1.58;0.80;;;;;;;;;;516289;28;1265;-82
2022/06/25 01:11:00;;;;;;;1.90;0.90;;;;;;;;;;516335;28;790;-82
2022/06/25 01:11:16;;;;;;;1.30;0.93;;;;;;;;;;516260;28;1099;-82
2022/06/25 01:11:31;;;;;;;0.95;0.82;;;;;;;;;;516278;28;1355;-82
2022/06/25 01:11:47;;;;;;;0.90;0.80;;;;;;;;;;516369;28;1626;-82
2022/06/25 01:12:03;;;;;;;1.42;0.88;;;;;;;;;;516268;28;936;-83
2022/06/25 01:12:18;;;;;;;1.30;0.82;;;;;;;;;;517183;28;1479;-83
2022/06/25 01:12:34;;;;;;;0.80;0.77;;;;;;;;;;517696;28;1324;-83
2022/06/25 01:12:50;;;;;;;1.00;0.80;;;;;;;;;;518005;28;1712;-82
2022/06/25 01:13:05;;;;;;;1.63;0.80;;;;;;;;;;517965;28;1534;-82
2022/06/25 01:13:22;;;;;;;2.17;0.80;;;;;;;;;;520712;28;1698;-82
2022/06/25 01:13:37;;;;;;;1.75;0.80;;;;;;;;;;518159;28;1239;-82
2022/06/25 01:13:53;;;;;;;1.93;0.97;;;;;;;;;;518663;28;1019;-82
2022/06/25 01:14:09;;;;;;;2.15;1.00;;;;;;;;;;518193;28;1094;-82
2022/06/25 01:14:25;;;;;;;3.20;0.95;;;;;;;;;;518171;28;857;-82
2022/06/25 01:14:40;;;;;;;3.05;0.90;;;;;;;;;;516016;28;1144;-82
2022/06/25 01:15:08;;;;;;;1.27;0.90;;;;;;;;;;516035;28;1236;-83
2022/06/25 01:15:23;;;;;;;1.30;0.90;;;;;;;;;;516071;28;861;-83
2022/06/25 01:15:39;;;;;;;1.90;0.83;;;;;;;;;;516335;28;984;-83
2022/06/25 01:15:54;;;;;;;1.85;0.90;;;;;;;;;;517015;28;881;-83
2022/06/25 01:16:09;;;;;;;1.90;1.03;;;;;;;;;;518623;28;1769;-83
2022/06/25 01:16:25;;;;;;;1.83;1.00;;;;;;;;;;518535;28;1156;-82
2022/06/25 01:16:40;;;;;;;1.45;0.90;;;;;;;;;;515976;28;1258;-82
2022/06/25 01:16:56;;;;;;;1.43;1.10;;;;;;;;;;513876;28;1507;-82
2022/06/25 01:17:11;;;;;;;2.15;1.00;;;;;;;;;;514000;28;912;-82
2022/06/25 01:17:27;;;;;;;2.93;1.00;;;;;;;;;;514084;28;1288;-82
2022/06/25 01:17:50;;;;;;;2.53;1.00;;;;;;;;;;511990;29;1535;-82
2022/06/25 01:18:07;;;;;;;1.48;0.95;;;;;;;;;;511981;28;1416;-83
2022/06/25 01:18:23;;;;;;;1.27;0.90;;;;;;;;;;511790;29;873;-83
2022/06/25 01:18:38;;;;;;;1.23;0.80;;;;;;;;;;510062;29;1055;-82
2022/06/25 01:18:53;;;;;;;1.30;0.80;;;;;;;;;;511530;29;1186;-82
2022/06/25 01:19:11;;;;;;;1.27;0.90;;;;;;;;;;511985;28;1233;-82
2022/06/25 01:19:26;;;;;;;1.90;0.90;;;;;;;;;;512056;29;1411;-82
2022/06/25 01:19:42;;;;;;;1.70;0.90;;;;;;;;;;513764;28;857;-82
2022/06/25 01:19:57;;;;;;;1.67;0.80;;;;;;;;;;513734;28;1515;-82
2022/06/25 01:20:14;;;;;;;1.70;0.70;;;;;;;;;;513982;28;1532;-82
2022/06/25 01:20:30;;;;;;;1.20;0.73;;;;;;;;;;512891;28;1388;-82
2022/06/25 01:20:45;;;;;;;1.80;0.95;;;;;;;;;;516424;28;1248;-82
2022/06/25 01:21:01;;;;;;;2.30;1.00;;;;;;;;;;519279;28;1784;-82
2022/06/25 01:21:16;;;;;;;2.35;0.80;;;;;;;;;;518849;28;1238;-82
2022/06/25 01:21:32;;;;;;;1.97;0.80;;;;;;;;;;517255;28;1200;-82
2022/06/25 01:21:47;;;;;;;1.90;0.90;;;;;;;;;;516084;28;1222;-82
2022/06/25 01:22:04;;;;;;;1.90;1.00;;;;;;;;;;516478;28;1172;-82
2022/06/25 01:22:19;;;;;;;1.20;0.90;;;;;;;;;;515065;28;1315;-82
2022/06/25 01:22:35;;;;;;;1.17;0.80;;;;;;;;;;516143;28;1502;-82
2022/06/25 01:22:51;;;;;;;1.33;0.80;;;;;;;;;;516256;28;1064;-82
2022/06/25 01:23:07;;;;;;;1.63;1.00;;;;;;;;;;516850;28;1755;-82
2022/06/25 01:23:22;;;;;;;1.75;1.00;;;;;;;;;;519768;28;786;-82
2022/06/25 01:23:38;;;;;;;1.83;0.97;;;;;;;;;;520173;28;1383;-82
2022/06/25 01:23:53;;;;;;;1.55;0.90;;;;;;;;;;518219;28;785;-82
2022/06/25 01:24:09;;;;;;;1.60;0.80;;;;;;;;;;515993;28;1237;-82
2022/06/25 01:24:24;;;;;;;1.73;0.90;;;;;;;;;;516537;28;1077;-83
2022/06/25 01:24:40;;;;;;;1.60;0.90;;;;;;;;;;518271;28;828;-83
2022/06/25 01:24:55;;;;;;;2.00;0.87;;;;;;;;;;518056;28;999;-83
2022/06/25 01:25:11;;;;;;;2.60;0.85;;;;;;;;;;517944;28;1188;-82
2022/06/25 01:25:34;;;;;;;2.63;0.85;;;;;;;;;;518078;28;864;-82
2022/06/25 01:25:49;;;;;;;2.40;1.00;;;;;;;;;;517983;28;1280;-82
2022/06/25 01:26:05;;;;;;;1.67;1.00;;;;;;;;;;518156;28;1370;-82
2022/06/25 01:26:20;;;;;;;2.15;1.00;;;;;;;;;;518189;28;813;-82
2022/06/25 01:26:37;;;;;;;2.30;0.90;;;;;;;;;;518068;28;1585;-83
2022/06/25 01:26:52;;;;;;;1.90;0.90;;;;;;;;;;518137;28;1465;-83
2022/06/25 01:27:16;;;;;;;2.23;1.00;;;;;;;;;;520313;28;931;-83
2022/06/25 01:27:32;;;;;;;2.15;0.82;;;;;;;;;;517128;28;1533;-83
2022/06/25 01:27:47;;;;;;;1.97;0.90;;;;;;;;;;515800;28;1288;-82
2022/06/25 01:28:04;;;;;;;1.92;1.00;;;;;;;;;;516068;28;1354;-82
2022/06/25 01:28:19;;;;;;;2.40;1.00;;;;;;;;;;516163;28;1070;-82
2022/06/25 01:28:34;;;;;;;1.88;1.00;;;;;;;;;;514077;28;1386;-82
2022/06/25 01:28:50;;;;;;;2.03;1.00;;;;;;;;;;511372;28;1192;-82
2022/06/25 01:29:07;;;;;;;2.33;1.02;;;;;;;;;;511961;29;1333;-82
2022/06/25 01:29:23;;;;;;;1.73;0.93;;;;;;;;;;512282;28;1596;-82
2022/06/25 01:29:38;;;;;;;2.13;0.90;;;;;;;;;;514946;28;967;-82
2022/06/25 01:29:54;;;;;;;2.10;0.90;;;;;;;;;;516750;28;1253;-82
2022/06/25 01:30:11;;;;;;;1.60;0.90;;;;;;;;;;516152;28;1563;-82
2022/06/25 01:30:26;;;;;;;1.60;0.93;;;;;;;;;;515524;28;1978;-82
2022/06/25 01:30:42;;;;;;;1.30;1.00;;;;;;;;;;516079;28;1255;-82
2022/06/25 01:30:57;;;;;;;1.13;0.90;;;;;;;;;;514037;28;1169;-82
2022/06/25 01:31:13;;;;;;;1.20;0.90;;;;;;;;;;514151;28;870;-82
2022/06/25 01:31:29;;;;;;;1.33;0.80;;;;;;;;;;514127;28;1544;-82
2022/06/25 01:31:45;;;;;;;1.50;0.85;;;;;;;;;;513986;28;1368;-83
2022/06/25 01:32:00;;;;;;;1.88;0.82;;;;;;;;;;513994;28;1524;-83
2022/06/25 01:32:16;;;;;;;1.90;0.80;;;;;;;;;;514227;28;1241;-83
2022/06/25 01:32:31;;;;;;;1.40;0.90;;;;;;;;;;512419;29;1185;-83
2022/06/25 01:32:46;;;;;;;1.40;1.00;;;;;;;;;;512997;28;794;-83
2022/06/25 01:33:02;;;;;;;1.73;1.10;;;;;;;;;;517968;28;936;-83
2022/06/25 01:33:17;;;;;;;2.53;1.00;;;;;;;;;;517529;28;1722;-82
2022/06/25 01:33:33;;;;;;;2.50;0.90;;;;;;;;;;514218;28;1161;-82
2022/06/25 01:33:48;;;;;;;1.60;0.90;;;;;;;;;;512719;28;1182;-82
2022/06/25 01:34:04;;;;;;;2.10;1.00;;;;;;;;;;514382;28;1276;-82
2022/06/25 01:34:19;;;;;;;2.37;0.97;;;;;;;;;;514423;28;1339;-82
2022/06/25 01:34:35;;;;;;;1.70;0.98;;;;;;;;;;514500;28;1228;-82
2022/06/25 01:34:50;;;;;;;1.93;1.00;;;;;;;;;;514383;28;861;-82
2022/06/25 01:35:08;;;;;;;1.60;0.98;;;;;;;;;;514192;28;1172;-82
2022/06/25 01:35:23;;;;;;;1.00;0.80;;;;;;;;;;514899;28;907;-82
2022/06/25 01:35:38;;;;;;;1.40;0.90;;;;;;;;;;517346;28;1495;-82
2022/06/25 01:35:54;;;;;;;1.77;1.00;;;;;;;;;;517074;28;1155;-82
2022/06/25 01:36:09;;;;;;;2.10;0.90;;;;;;;;;;518509;28;1055;-82
2022/06/25 01:36:26;;;;;;;1.97;0.80;;;;;;;;;;516986;28;1380;-82
2022/06/25 01:36:41;;;;;;;1.65;0.80;;;;;;;;;;518280;28;1387;-82
2022/06/25 01:36:56;;;;;;;1.92;0.90;;;;;;;;;;516357;28;1660;-82
2022/06/25 01:37:12;;;;;;;2.00;0.90;;;;;;;;;;514224;28;1149;-82
2022/06/25 01:37:27;;;;;;;1.77;0.93;;;;;;;;;;513612;28;1318;-82
2022/06/25 01:37:42;;;;;;;1.92;1.00;;;;;;;;;;512294;28;1202;-83
2022/06/25 01:37:58;;;;;;;1.53;0.93;;;;;;;;;;513990;28;1677;-83
2022/06/25 01:38:13;;;;;;;1.25;0.90;;;;;;;;;;514121;28;826;-82
2022/06/25 01:38:29;;;;;;;1.30;0.90;;;;;;;;;;514391;28;881;-82
2022/06/25 01:38:45;;;;;;;1.10;1.00;;;;;;;;;;516395;28;1067;-82
2022/06/25 01:39:00;;;;;;;2.35;1.00;;;;;;;;;;516642;28;1095;-82
2022/06/25 01:39:16;;;;;;;3.90;0.90;;;;;;;;;;518725;28;1349;-82
2022/06/25 01:39:31;;;;;;;2.43;0.80;;;;;;;;;;518312;28;1274;-82
2022/06/25 01:39:52;;;;;;;1.23;0.90;;;;;;;;;;518227;28;1247;-82
2022/06/25 01:40:08;;;;;;;1.70;0.90;;;;;;;;;;518147;28;1051;-82
2022/06/25 01:40:23;;;;;;;1.80;0.95;;;;;;;;;;519662;28;1227;-83
2022/06/25 01:40:39;;;;;;;1.97;0.97;;;;;;;;;;520157;28;1168;-83
2022/06/25 01:40:54;;;;;;;1.77;0.80;;;;;;;;;;518137;28;1282;-83
2022/06/25 01:41:10;;;;;;;1.50;0.80;;;;;;;;;;518089;28;1597;-83
2022/06/25 01:41:25;;;;;;;2.53;1.10;;;;;;;;;;518219;28;919;-83
2022/06/25 01:41:41;;;;;;;2.20;1.02;;;;;;;;;;518351;28;880;-82
2022/06/25 01:41:56;;;;;;;1.33;0.90;;;;;;;;;;519437;28;851;-82
2022/06/25 01:42:58;;;;;;;2.15;0.90;;;;;;;;;;518288;28;1684;-82
2022/06/25 01:42:59;;;;;;;1.73;1.02;;;;;;;;;;518352;28;845;-82
2022/06/25 01:43:14;;;;;;;1.92;1.00;;;;;;;;;;520056;28;836;-82